Time;durP1;ratioP1;P1;durP2;ratioP2;P2;SDS_P1;SDS_P2;PMS_P1;PMS_P2;Temp;Humidity;BMP_temperature;BMP_pressure;BME280_temperature;BME280_humidity;BME280_pressure;Samples;Min_cycle;Max_cycle;Signal;HPM_P1;HPM_P2
2023/11/13 00:02:07;;;;;;;4.13;2.60;;;6.00;99.90;;;;;;5072473;28;20193;-86
2023/11/13 00:04:35;;;;;;;3.83;2.23;;;6.10;99.90;;;;;;5072151;28;20674;-85
2023/11/13 00:07:00;;;;;;;4.60;2.47;;;6.00;99.90;;;;;;5072420;28;20185;-84
2023/11/13 00:09:26;;;;;;;8.17;2.57;;;6.00;99.90;;;;;;5072252;28;20196;-84
2023/11/13 00:11:53;;;;;;;2.60;2.30;;;5.90;99.90;;;;;;5065050;28;20209;-85
2023/11/13 00:14:19;;;;;;;4.30;2.63;;;5.90;99.90;;;;;;5072432;28;20188;-87
2023/11/13 00:16:45;;;;;;;3.87;2.40;;;5.90;99.90;;;;;;5071999;28;20331;-86
2023/11/13 00:19:10;;;;;;;5.33;2.60;;;5.80;99.90;;;;;;5067044;28;20650;-87
2023/11/13 00:21:36;;;;;;;4.37;2.30;;;5.70;99.90;;;;;;5072027;28;20208;-85
2023/11/13 00:24:02;;;;;;;6.33;2.50;;;5.70;99.90;;;;;;5072064;28;20546;-86
2023/11/13 00:26:28;;;;;;;5.10;2.50;;;5.70;99.90;;;;;;5067220;28;20181;-86
2023/11/13 00:28:54;;;;;;;3.90;2.50;;;5.60;99.90;;;;;;5076189;28;20197;-88
2023/11/13 00:31:20;;;;;;;4.83;2.27;;;5.60;99.90;;;;;;5077202;28;20192;-85
2023/11/13 00:33:48;;;;;;;3.60;2.20;;;5.60;99.90;;;;;;5075777;28;20189;-87
2023/11/13 00:36:14;;;;;;;5.20;2.63;;;5.50;99.90;;;;;;5076543;28;20177;-86
2023/11/13 00:38:40;;;;;;;3.60;2.43;;;5.50;99.90;;;;;;5076578;28;20647;-87
2023/11/13 00:41:10;;;;;;;5.80;2.60;;;5.50;99.90;;;;;;5068268;28;20194;-86
2023/11/13 00:43:36;;;;;;;4.17;2.50;;;5.50;99.90;;;;;;5075055;28;20310;-86
2023/11/13 00:46:02;;;;;;;5.57;2.20;;;5.40;99.90;;;;;;5075556;28;20619;-86
2023/11/13 00:48:28;;;;;;;4.90;2.30;;;5.40;99.90;;;;;;5071284;28;20186;-86
2023/11/13 00:50:53;;;;;;;3.00;2.30;;;5.40;99.90;;;;;;5076831;28;20518;-84
2023/11/13 00:53:19;;;;;;;5.70;2.67;;;5.30;99.90;;;;;;5075654;28;20597;-87
2023/11/13 00:55:45;;;;;;;6.27;2.60;;;5.30;99.90;;;;;;5498836;22;20530;-84
2023/11/13 00:58:10;;;;;;;4.73;2.33;;;5.30;99.90;;;;;;5029074;28;20206;-77
2023/11/13 01:00:36;;;;;;;5.07;2.17;;;5.20;99.90;;;;;;5033677;28;20214;-78
2023/11/13 01:03:02;;;;;;;4.53;2.47;;;5.20;99.90;;;;;;5024634;28;20268;-78
2023/11/13 01:05:27;;;;;;;3.97;2.27;;;5.10;99.90;;;;;;5034859;28;20531;-78
2023/11/13 01:07:53;;;;;;;3.60;2.50;;;5.10;99.90;;;;;;5035307;28;20697;-78
2023/11/13 01:10:19;;;;;;;3.30;2.20;;;5.10;99.90;;;;;;5036123;28;20183;-84
2023/11/13 01:12:45;;;;;;;6.87;2.57;;;5.00;99.90;;;;;;5036060;28;20545;-88
2023/11/13 01:15:12;;;;;;;5.87;2.47;;;5.00;99.90;;;;;;5036429;28;20640;-79
2023/11/13 01:17:38;;;;;;;3.13;2.47;;;5.00;99.90;;;;;;5035209;28;20205;-79
2023/11/13 01:20:05;;;;;;;5.27;2.60;;;5.00;99.90;;;;;;5036225;28;20178;-79
2023/11/13 01:22:32;;;;;;;4.57;2.53;;;5.00;99.90;;;;;;5036400;28;20174;-77
2023/11/13 01:24:58;;;;;;;3.87;2.47;;;4.90;99.90;;;;;;5036062;28;20214;-78
2023/11/13 01:27:23;;;;;;;7.97;2.40;;;4.90;99.90;;;;;;5029937;28;20567;-78
2023/11/13 01:29:49;;;;;;;4.40;2.33;;;4.90;99.90;;;;;;5036198;28;20186;-77
2023/11/13 01:32:15;;;;;;;5.80;2.63;;;4.80;99.90;;;;;;5028091;28;20617;-78
2023/11/13 01:34:42;;;;;;;3.00;2.10;;;4.80;99.90;;;;;;5036167;28;20210;-78
2023/11/13 01:37:08;;;;;;;3.37;2.40;;;4.70;99.90;;;;;;5035640;28;20190;-77
2023/11/13 01:39:34;;;;;;;4.10;2.30;;;4.70;99.90;;;;;;5036318;28;20187;-79
2023/11/13 01:42:00;;;;;;;3.50;1.97;;;4.70;99.90;;;;;;5036226;28;20190;-77
2023/11/13 01:44:26;;;;;;;7.57;2.50;;;4.70;99.90;;;;;;5035537;28;20264;-79
2023/11/13 01:46:52;;;;;;;5.67;2.30;;;4.60;99.90;;;;;;5030490;28;20179;-79
2023/11/13 01:49:20;;;;;;;4.00;2.60;;;4.60;99.90;;;;;;5031947;28;20190;-82
2023/11/13 01:51:49;;;;;;;4.13;2.77;;;4.60;99.90;;;;;;5035759;28;20182;-83
2023/11/13 01:54:16;;;;;;;5.23;2.53;;;4.60;99.90;;;;;;5035770;28;20182;-86
2023/11/13 01:56:43;;;;;;;4.50;2.33;;;4.50;99.90;;;;;;5029519;28;20230;-80
2023/11/13 01:59:12;;;;;;;5.80;2.57;;;4.60;99.90;;;;;;5034182;28;20197;-80
2023/11/13 02:01:40;;;;;;;5.40;2.60;;;4.60;99.90;;;;;;5035589;28;20174;-78
2023/11/13 02:04:06;;;;;;;5.00;2.60;;;4.60;99.90;;;;;;5034168;28;20221;-78
2023/11/13 02:06:32;;;;;;;5.27;2.50;;;4.50;99.90;;;;;;5035027;28;20170;-77
2023/11/13 02:08:58;;;;;;;4.27;2.63;;;4.50;99.90;;;;;;5034862;28;20332;-77
2023/11/13 02:11:25;;;;;;;4.53;2.57;;;4.50;99.90;;;;;;5035539;28;20245;-78
2023/11/13 02:13:53;;;;;;;6.37;2.27;;;4.50;99.90;;;;;;5035121;28;20183;-78
2023/11/13 02:16:20;;;;;;;3.03;2.10;;;4.50;99.90;;;;;;5033982;28;20186;-79
2023/11/13 02:18:46;;;;;;;5.50;2.00;;;4.50;99.90;;;;;;5035507;28;20221;-78
2023/11/13 02:21:11;;;;;;;2.77;2.20;;;4.40;99.90;;;;;;5034173;28;20206;-78
2023/11/13 02:23:37;;;;;;;3.77;2.10;;;4.40;99.90;;;;;;5035410;28;20551;-79
2023/11/13 02:26:13;;;;;;;3.40;2.47;;;4.30;99.90;;;;;;5031598;28;20997;-87
2023/11/13 02:28:40;;;;;;;3.43;2.23;;;4.30;99.90;;;;;;5017908;28;20186;-90
2023/11/13 02:31:06;;;;;;;3.70;2.13;;;4.30;99.90;;;;;;5035296;28;20193;-86
2023/11/13 02:33:31;;;;;;;4.73;2.20;;;4.30;99.90;;;;;;5032393;28;20183;-89
2023/11/13 02:35:57;;;;;;;5.77;2.00;;;4.30;99.90;;;;;;5029784;28;20178;-88
2023/11/13 02:38:23;;;;;;;3.37;1.93;;;4.20;99.90;;;;;;5033426;28;20190;-91
2023/11/13 02:40:49;;;;;;;5.03;2.20;;;4.10;99.90;;;;;;5028376;28;20198;-80
2023/11/13 02:43:14;;;;;;;5.30;1.90;;;4.20;99.90;;;;;;5034468;28;20182;-77
2023/11/13 02:45:40;;;;;;;2.60;1.90;;;4.10;99.90;;;;;;5034964;28;20186;-79
2023/11/13 02:48:06;;;;;;;6.50;2.60;;;4.10;99.90;;;;;;5034035;28;20186;-77
2023/11/13 02:50:32;;;;;;;3.73;2.37;;;4.10;99.90;;;;;;5034665;28;20183;-78
2023/11/13 02:52:58;;;;;;;2.53;2.10;;;4.10;99.90;;;;;;5034862;28;20184;-81
2023/11/13 02:55:24;;;;;;;6.17;2.23;;;4.10;99.90;;;;;;5035155;28;20285;-80
2023/11/13 02:57:52;;;;;;;2.43;1.90;;;4.20;99.90;;;;;;5028714;28;20641;-81
2023/11/13 03:00:19;;;;;;;3.40;1.90;;;4.10;99.90;;;;;;5034736;28;20205;-85
2023/11/13 03:02:46;;;;;;;3.23;1.97;;;4.10;99.90;;;;;;5034406;28;20683;-78
2023/11/13 03:05:11;;;;;;;2.70;1.80;;;4.10;99.90;;;;;;5034027;28;20222;-77
2023/11/13 03:07:37;;;;;;;4.30;2.30;;;4.10;99.90;;;;;;5032894;28;20309;-78
2023/11/13 03:10:05;;;;;;;3.63;2.07;;;4.10;99.90;;;;;;5034202;28;20269;-79
2023/11/13 03:12:31;;;;;;;3.80;1.97;;;4.10;99.90;;;;;;5032631;28;20190;-78
2023/11/13 03:14:57;;;;;;;3.87;1.90;;;4.10;99.90;;;;;;5034131;28;20190;-78
2023/11/13 03:17:22;;;;;;;2.83;1.63;;;4.10;99.90;;;;;;5033906;28;20197;-78
2023/11/13 03:19:48;;;;;;;4.93;2.13;;;4.10;99.90;;;;;;5032723;28;20190;-78
2023/11/13 03:22:14;;;;;;;3.83;2.03;;;4.10;99.90;;;;;;5034063;28;20217;-87
2023/11/13 03:24:40;;;;;;;3.30;1.60;;;4.00;99.90;;;;;;5033288;28;20378;-79
2023/11/13 03:27:06;;;;;;;2.43;1.80;;;4.00;99.90;;;;;;5029810;28;20190;-83
2023/11/13 03:29:32;;;;;;;2.73;1.70;;;4.00;99.90;;;;;;5034175;28;20526;-88
2023/11/13 03:31:58;;;;;;;2.53;1.63;;;4.00;99.90;;;;;;5026301;28;20193;-85
2023/11/13 03:34:24;;;;;;;2.17;1.80;;;3.90;99.90;;;;;;5033908;28;20178;-83
2023/11/13 03:36:50;;;;;;;2.73;1.77;;;3.90;99.90;;;;;;5034339;28;20178;-80
2023/11/13 03:39:17;;;;;;;4.73;1.90;;;3.90;99.90;;;;;;5034065;28;20198;-79
2023/11/13 03:41:43;;;;;;;3.07;1.70;;;3.90;99.90;;;;;;5034071;28;20197;-79
2023/11/13 03:44:08;;;;;;;2.07;1.57;;;3.90;99.90;;;;;;5026414;28;20218;-80
2023/11/13 03:46:34;;;;;;;3.87;1.70;;;3.80;99.90;;;;;;5034045;28;20293;-86
2023/11/13 03:49:00;;;;;;;5.10;1.90;;;3.80;99.90;;;;;;5034053;28;20194;-80
2023/11/13 03:51:28;;;;;;;4.20;1.57;;;3.80;99.90;;;;;;5034262;28;20194;-88
2023/11/13 03:53:54;;;;;;;9.70;1.70;;;3.80;99.90;;;;;;5034046;28;20186;-84
2023/11/13 03:56:21;;;;;;;3.03;1.63;;;3.80;99.90;;;;;;5032588;28;20755;-83
2023/11/13 03:58:49;;;;;;;2.47;1.60;;;3.80;99.90;;;;;;5032648;28;20249;-90
2023/11/13 04:01:17;;;;;;;3.17;1.57;;;3.80;99.90;;;;;;5037788;28;20217;-79
2023/11/13 04:03:43;;;;;;;2.77;1.63;;;3.80;99.90;;;;;;5037638;28;20665;-87
2023/11/13 04:06:09;;;;;;;2.73;1.40;;;3.80;99.90;;;;;;5037072;28;20190;-86
2023/11/13 04:08:35;;;;;;;3.40;1.37;;;3.80;99.90;;;;;;5036700;28;20235;-79
2023/11/13 04:11:04;;;;;;;2.07;1.40;;;3.80;99.90;;;;;;5038030;28;20194;-80
2023/11/13 04:13:31;;;;;;;2.50;1.40;;;3.80;99.90;;;;;;5031396;28;20336;-78
2023/11/13 04:15:57;;;;;;;1.90;1.40;;;3.80;99.90;;;;;;5037910;28;20183;-78
2023/11/13 04:18:23;;;;;;;5.07;1.50;;;3.80;99.90;;;;;;5037978;28;20186;-80
2023/11/13 04:20:50;;;;;;;5.00;1.57;;;3.80;99.90;;;;;;5037559;28;20186;-78
2023/11/13 04:23:16;;;;;;;3.73;1.53;;;3.90;99.90;;;;;;5036136;28;20189;-77
2023/11/13 04:25:46;;;;;;;2.33;1.37;;;3.80;99.90;;;;;;5037149;28;20617;-78
2023/11/13 04:28:13;;;;;;;1.73;1.30;;;3.70;99.90;;;;;;5029249;28;20266;-78
2023/11/13 04:30:39;;;;;;;2.90;1.53;;;3.70;99.90;;;;;;5036336;28;20686;-77
2023/11/13 04:33:05;;;;;;;2.40;1.50;;;3.70;99.90;;;;;;5037162;28;20236;-79
2023/11/13 04:35:31;;;;;;;5.67;1.70;;;3.70;99.90;;;;;;5035673;28;20186;-78
2023/11/13 04:37:57;;;;;;;2.83;1.70;;;3.70;99.90;;;;;;5037051;28;20237;-79
2023/11/13 04:40:26;;;;;;;3.27;1.43;;;3.80;99.90;;;;;;5036979;28;20182;-88
2023/11/13 04:42:52;;;;;;;4.07;1.70;;;3.80;99.90;;;;;;5034092;28;20625;-83
2023/11/13 04:45:18;;;;;;;3.93;1.70;;;3.80;99.90;;;;;;5033850;28;20202;-80
2023/11/13 04:47:44;;;;;;;2.33;1.50;;;3.80;99.90;;;;;;5036886;28;20249;-78
2023/11/13 04:50:10;;;;;;;4.30;1.63;;;3.80;99.90;;;;;;5028124;28;20816;-78
2023/11/13 04:52:35;;;;;;;2.40;1.47;;;3.70;99.90;;;;;;5036555;28;20178;-77
2023/11/13 04:55:01;;;;;;;5.60;1.63;;;3.70;99.90;;;;;;5036738;28;20218;-77
2023/11/13 04:57:27;;;;;;;2.10;1.50;;;3.70;99.90;;;;;;5036207;28;20296;-77
2023/11/13 04:59:53;;;;;;;3.80;1.80;;;3.70;99.90;;;;;;5036320;28;20179;-78
2023/11/13 05:02:19;;;;;;;2.17;1.40;;;3.70;99.90;;;;;;5036616;28;20207;-78
2023/11/13 05:04:46;;;;;;;2.83;1.43;;;3.70;99.90;;;;;;5033609;28;20696;-77
2023/11/13 05:07:11;;;;;;;3.23;1.90;;;3.70;99.90;;;;;;5035185;28;20220;-78
2023/11/13 05:09:38;;;;;;;1.77;1.43;;;3.70;99.90;;;;;;5036304;28;20227;-77
2023/11/13 05:12:04;;;;;;;2.47;1.40;;;3.70;99.90;;;;;;5035645;28;20216;-77
2023/11/13 05:14:30;;;;;;;5.20;1.70;;;3.70;99.90;;;;;;5028821;28;20244;-78
2023/11/13 05:16:56;;;;;;;2.80;1.57;;;3.60;99.90;;;;;;5036307;28;20888;-79
2023/11/13 05:19:23;;;;;;;2.33;1.60;;;3.60;99.90;;;;;;5034982;28;20190;-78
2023/11/13 05:21:50;;;;;;;1.73;1.50;;;3.60;99.90;;;;;;5028295;28;20194;-89
2023/11/13 05:24:16;;;;;;;1.70;1.40;;;3.50;99.90;;;;;;5033320;28;20240;-79
2023/11/13 05:26:42;;;;;;;2.53;1.60;;;3.40;99.90;;;;;;5028550;28;20174;-77
2023/11/13 05:29:08;;;;;;;3.80;1.80;;;3.50;99.90;;;;;;5035976;28;20524;-78
2023/11/13 05:31:34;;;;;;;2.17;1.80;;;3.50;99.90;;;;;;5036132;28;20182;-77
2023/11/13 05:33:59;;;;;;;3.80;1.50;;;3.40;99.90;;;;;;5036272;28;20206;-80
2023/11/13 05:36:25;;;;;;;2.27;1.70;;;3.40;99.90;;;;;;5029104;28;20215;-80
2023/11/13 05:38:51;;;;;;;1.60;1.40;;;3.40;99.90;;;;;;5033283;28;20186;-78
2023/11/13 05:41:17;;;;;;;4.53;1.50;;;3.40;99.90;;;;;;5035263;28;20191;-77
2023/11/13 05:43:43;;;;;;;2.80;1.60;;;3.40;99.90;;;;;;5031342;28;20534;-78
2023/11/13 05:46:09;;;;;;;4.10;1.53;;;3.30;99.90;;;;;;5031044;28;20224;-84
2023/11/13 05:48:34;;;;;;;1.70;1.53;;;3.30;99.90;;;;;;5035434;28;20624;-82
2023/11/13 05:51:00;;;;;;;3.83;2.00;;;3.30;99.90;;;;;;5018505;28;20263;-82
2023/11/13 05:53:27;;;;;;;4.73;1.50;;;3.30;99.90;;;;;;5033552;28;20186;-87
2023/11/13 05:55:53;;;;;;;4.57;1.70;;;3.20;99.90;;;;;;5035521;28;20373;-79
2023/11/13 05:58:18;;;;;;;3.47;1.83;;;3.30;99.90;;;;;;5028310;28;20273;-84
2023/11/13 06:00:44;;;;;;;2.40;1.53;;;3.30;99.90;;;;;;5031064;28;20233;-78
2023/11/13 06:03:10;;;;;;;3.50;1.67;;;3.30;99.90;;;;;;5031251;28;20569;-78
2023/11/13 06:05:36;;;;;;;3.00;1.57;;;3.30;99.90;;;;;;5034177;28;20676;-77
2023/11/13 06:08:02;;;;;;;2.17;1.50;;;3.30;99.90;;;;;;5034189;28;20187;-78
2023/11/13 06:10:28;;;;;;;3.40;1.50;;;3.30;99.90;;;;;;5033619;28;20835;-77
2023/11/13 06:12:54;;;;;;;4.07;1.80;;;3.40;99.90;;;;;;5033119;28;20194;-78
2023/11/13 06:15:20;;;;;;;4.30;1.57;;;3.40;99.90;;;;;;5032699;28;20627;-78
2023/11/13 06:17:46;;;;;;;2.80;1.37;;;3.40;99.90;;;;;;5034225;28;20222;-77
2023/11/13 06:20:13;;;;;;;4.07;1.63;;;3.40;99.90;;;;;;5034826;28;20183;-77
2023/11/13 06:22:43;;;;;;;4.33;1.50;;;3.40;99.90;;;;;;5033278;28;20192;-78
2023/11/13 06:25:12;;;;;;;3.47;1.43;;;3.40;99.90;;;;;;5034231;28;20563;-78
2023/11/13 06:27:39;;;;;;;1.90;1.40;;;3.50;99.90;;;;;;5034976;28;20191;-79
2023/11/13 06:30:09;;;;;;;3.73;1.40;;;3.50;99.90;;;;;;5034704;28;20601;-78
2023/11/13 06:32:36;;;;;;;2.53;1.50;;;3.50;99.90;;;;;;5034835;28;20186;-79
2023/11/13 06:35:02;;;;;;;4.37;1.37;;;3.40;99.90;;;;;;5033513;28;20269;-78
2023/11/13 06:37:28;;;;;;;1.47;1.23;;;3.40;99.90;;;;;;5034416;28;20265;-79
2023/11/13 06:39:54;;;;;;;2.90;1.70;;;3.40;99.90;;;;;;5034654;28;20285;-90
2023/11/13 06:42:19;;;;;;;2.27;1.60;;;3.40;99.90;;;;;;5034659;28;20716;-91
2023/11/13 06:44:45;;;;;;;2.60;1.60;;;3.40;99.90;;;;;;5032901;28;20257;-88
2023/11/13 06:47:11;;;;;;;2.50;1.20;;;3.40;99.90;;;;;;5034278;28;20186;-79
2023/11/13 06:49:38;;;;;;;3.20;1.50;;;3.40;99.90;;;;;;5033138;28;20197;-78
2023/11/13 06:52:08;;;;;;;3.40;1.43;;;3.40;99.90;;;;;;5034197;28;20605;-78
2023/11/13 06:54:34;;;;;;;4.97;1.60;;;3.40;99.90;;;;;;5033131;28;21495;-77
2023/11/13 06:57:01;;;;;;;3.97;1.40;;;3.40;99.90;;;;;;5032510;28;20240;-77
2023/11/13 06:59:27;;;;;;;2.83;1.67;;;3.40;99.90;;;;;;5033857;28;20190;-79
2023/11/13 07:01:53;;;;;;;2.17;1.40;;;3.30;99.90;;;;;;5034483;28;20187;-78
2023/11/13 07:04:19;;;;;;;2.33;1.70;;;3.40;99.90;;;;;;5033977;28;20224;-78
2023/11/13 07:06:45;;;;;;;2.93;1.67;;;3.40;99.90;;;;;;5034052;28;20194;-77
2023/11/13 07:09:11;;;;;;;2.73;1.70;;;3.40;99.90;;;;;;5033112;28;20201;-78
2023/11/13 07:11:47;;;;;;;4.10;1.97;;;3.40;99.90;;;;;;5026230;28;20182;-78
2023/11/13 07:14:15;;;;;;;3.03;1.63;;;3.40;99.90;;;;;;5026026;28;20215;-78
2023/11/13 07:16:41;;;;;;;3.43;1.60;;;3.50;99.90;;;;;;5033682;28;20305;-77
2023/11/13 07:19:08;;;;;;;2.90;1.70;;;3.50;99.90;;;;;;5034380;28;20187;-78
2023/11/13 07:21:35;;;;;;;2.80;1.63;;;3.50;99.90;;;;;;5032764;28;20186;-89
2023/11/13 07:24:05;;;;;;;2.80;1.93;;;3.50;99.90;;;;;;5032949;28;20680;-82
2023/11/13 07:26:31;;;;;;;2.70;2.07;;;3.50;99.90;;;;;;5032833;28;20519;-86
2023/11/13 07:28:58;;;;;;;3.30;2.10;;;3.50;99.90;;;;;;5033750;28;20562;-91
2023/11/13 07:31:24;;;;;;;2.53;1.83;;;3.50;99.90;;;;;;5034081;28;20198;-80
2023/11/13 07:33:50;;;;;;;3.77;1.90;;;3.60;99.90;;;;;;5032735;28;20313;-79
2023/11/13 07:36:16;;;;;;;3.20;2.30;;;3.60;99.90;;;;;;5033444;28;20189;-78
2023/11/13 07:38:45;;;;;;;4.27;2.10;;;3.60;99.90;;;;;;5026034;28;20192;-80
2023/11/13 07:41:11;;;;;;;6.40;2.30;;;3.70;99.90;;;;;;5032798;28;20260;-78
2023/11/13 07:43:41;;;;;;;4.67;2.60;;;3.80;99.90;;;;;;5033472;28;20210;-79
2023/11/13 07:46:09;;;;;;;2.63;2.20;;;3.80;99.90;;;;;;5033787;28;20635;-77
2023/11/13 07:48:36;;;;;;;4.90;3.70;;;3.80;99.90;;;;;;5025327;28;20691;-77
2023/11/13 07:51:06;;;;;;;5.33;2.73;;;3.80;99.90;;;;;;5031827;28;20291;-77
2023/11/13 07:53:33;;;;;;;4.53;2.50;;;3.90;99.90;;;;;;5030851;28;20190;-78
2023/11/13 07:55:59;;;;;;;3.90;2.27;;;3.90;99.90;;;;;;5033306;28;20269;-78
2023/11/13 07:58:25;;;;;;;4.57;2.53;;;4.00;99.90;;;;;;5033224;28;20269;-79
2023/11/13 08:00:52;;;;;;;3.10;2.20;;;4.00;99.90;;;;;;5033491;28;20178;-78
2023/11/13 08:03:23;;;;;;;3.60;2.50;;;4.00;99.90;;;;;;5031889;28;20637;-79
2023/11/13 08:05:49;;;;;;;2.90;2.13;;;4.00;99.90;;;;;;5033239;28;20182;-80
2023/11/13 08:08:16;;;;;;;6.83;2.00;;;4.00;99.90;;;;;;5033211;28;20236;-77
2023/11/13 08:10:46;;;;;;;3.90;2.23;;;4.00;99.90;;;;;;5032652;28;20633;-78
2023/11/13 08:13:13;;;;;;;6.70;2.43;;;4.00;99.90;;;;;;5031948;28;20638;-77
2023/11/13 08:15:39;;;;;;;4.10;2.47;;;4.00;99.90;;;;;;5031271;28;20209;-78
2023/11/13 08:18:05;;;;;;;4.53;2.40;;;4.10;99.90;;;;;;5033190;28;20296;-78
2023/11/13 08:20:31;;;;;;;5.57;2.40;;;4.20;99.90;;;;;;5033355;28;20182;-79
2023/11/13 08:22:57;;;;;;;4.33;2.40;;;4.20;99.90;;;;;;5026524;28;20185;-78
2023/11/13 08:25:29;;;;;;;3.73;1.97;;;4.30;99.90;;;;;;5019564;28;20220;-78
2023/11/13 08:27:54;;;;;;;3.47;2.33;;;4.30;99.90;;;;;;5032991;28;20187;-78
2023/11/13 08:30:23;;;;;;;2.43;2.00;;;4.40;99.90;;;;;;5032951;28;20628;-79
2023/11/13 08:32:52;;;;;;;4.57;2.43;;;4.40;99.90;;;;;;5033528;28;20190;-78
2023/11/13 08:35:19;;;;;;;3.50;2.20;;;4.40;99.90;;;;;;5023832;28;20285;-79
2023/11/13 08:37:48;;;;;;;3.40;2.40;;;4.50;99.90;;;;;;5032530;28;20336;-78
2023/11/13 08:40:17;;;;;;;3.97;2.33;;;4.60;99.90;;;;;;5025976;28;20186;-78
2023/11/13 08:42:46;;;;;;;4.43;2.37;;;4.70;99.90;;;;;;5033194;28;20592;-77
2023/11/13 08:45:13;;;;;;;4.50;2.20;;;4.80;99.90;;;;;;5026895;28;20214;-77
2023/11/13 08:47:40;;;;;;;3.30;2.13;;;4.90;99.90;;;;;;5033951;28;20205;-78
2023/11/13 08:50:09;;;;;;;3.90;2.40;;;4.90;99.90;;;;;;5027654;28;20186;-79
2023/11/13 08:52:35;;;;;;;6.53;1.93;;;4.90;99.90;;;;;;5027198;28;20194;-78
2023/11/13 08:55:01;;;;;;;2.50;1.80;;;4.90;99.90;;;;;;5031252;28;20232;-84
2023/11/13 08:57:27;;;;;;;2.63;1.90;;;5.00;99.90;;;;;;5036066;28;20233;-90
2023/11/13 08:59:52;;;;;;;7.97;2.30;;;5.10;99.90;;;;;;5036613;28;20178;-82
2023/11/13 09:02:25;;;;;;;3.43;2.00;;;5.10;99.90;;;;;;5035469;28;20652;-86
2023/11/13 09:04:51;;;;;;;4.53;2.27;;;5.10;99.90;;;;;;5036495;28;20210;-89
2023/11/13 09:07:17;;;;;;;3.07;1.97;;;5.10;99.90;;;;;;5028046;28;20232;-79
2023/11/13 09:09:43;;;;;;;4.50;2.20;;;5.20;99.90;;;;;;5036285;28;20186;-78
2023/11/13 09:12:12;;;;;;;6.23;1.90;;;5.20;99.90;;;;;;5036337;28;20261;-78
2023/11/13 09:14:39;;;;;;;3.53;2.00;;;5.30;99.90;;;;;;5036193;28;20643;-79
2023/11/13 09:17:12;;;;;;;4.67;2.03;;;5.40;99.90;;;;;;5029825;28;20185;-78
2023/11/13 09:19:41;;;;;;;2.60;1.63;;;5.50;99.90;;;;;;5034961;28;20200;-78
2023/11/13 09:22:12;;;;;;;4.70;2.13;;;5.60;99.90;;;;;;5034770;28;20277;-78
2023/11/13 09:24:38;;;;;;;3.50;2.13;;;5.80;99.90;;;;;;5029177;28;20707;-78
2023/11/13 09:27:11;;;;;;;4.87;2.20;;;5.90;99.90;;;;;;5034740;28;20193;-77
2023/11/13 09:29:44;;;;;;;5.97;2.30;;;6.00;99.90;;;;;;5025360;28;20190;-78
2023/11/13 09:32:11;;;;;;;2.73;1.97;;;6.00;99.90;;;;;;5035875;28;20625;-78
2023/11/13 09:34:37;;;;;;;6.13;2.27;;;6.10;99.90;;;;;;5028248;28;20535;-81
2023/11/13 09:37:08;;;;;;;5.03;2.00;;;6.10;99.90;;;;;;5035846;28;20186;-79
2023/11/13 09:39:39;;;;;;;6.20;2.40;;;6.20;99.90;;;;;;5035988;28;20217;-78
2023/11/13 09:42:14;;;;;;;10.83;2.87;;;6.30;99.90;;;;;;5034552;28;20190;-78
2023/11/13 09:44:41;;;;;;;4.17;2.43;;;6.40;99.90;;;;;;5027236;28;20221;-78
2023/11/13 09:47:10;;;;;;;5.13;2.37;;;6.40;99.90;;;;;;5033329;28;20194;-78
2023/11/13 09:49:43;;;;;;;4.03;2.50;;;6.40;99.90;;;;;;5029761;28;20603;-78
2023/11/13 09:52:12;;;;;;;6.40;2.67;;;6.50;99.90;;;;;;5035391;28;20676;-79
2023/11/13 09:54:39;;;;;;;5.80;2.30;;;6.50;99.90;;;;;;5030823;28;20218;-82
2023/11/13 09:57:09;;;;;;;7.07;2.67;;;6.50;99.90;;;;;;5030224;28;20669;-79
2023/11/13 09:59:36;;;;;;;6.40;2.67;;;6.50;99.90;;;;;;5034159;28;20206;-78
2023/11/13 10:02:08;;;;;;;7.00;2.90;;;6.60;99.90;;;;;;5035364;28;20186;-79
2023/11/13 10:04:34;;;;;;;6.33;2.53;;;6.60;99.90;;;;;;5033865;28;20238;-85
2023/11/13 10:07:02;;;;;;;5.77;2.97;;;6.70;99.90;;;;;;5034009;28;20198;-78
2023/11/13 10:09:29;;;;;;;4.30;2.77;;;6.80;99.90;;;;;;5033824;28;20198;-79
2023/11/13 10:11:58;;;;;;;4.37;2.30;;;6.80;99.90;;;;;;5033802;28;20285;-78
2023/11/13 10:14:25;;;;;;;3.93;2.00;;;6.90;99.90;;;;;;5034667;28;20190;-77
2023/11/13 10:17:00;;;;;;;5.43;2.63;;;7.00;99.90;;;;;;5033509;28;20644;-79
2023/11/13 10:19:27;;;;;;;5.43;2.47;;;7.00;99.90;;;;;;5033577;28;20295;-79
2023/11/13 10:21:54;;;;;;;4.87;2.80;;;6.90;99.90;;;;;;5034909;28;20191;-79
2023/11/13 10:24:22;;;;;;;9.32;3.60;;;7.00;99.90;;;;;;5033797;28;20610;-78
2023/11/13 10:26:50;;;;;;;5.77;3.30;;;7.00;99.90;;;;;;5027393;28;20945;-79
2023/11/13 10:29:34;;;;;;;4.30;3.53;;;7.10;99.90;;;;;;5026810;28;20569;-77
2023/11/13 10:32:01;;;;;;;5.60;3.50;;;7.10;99.90;;;;;;5034912;28;20225;-79
2023/11/13 10:34:42;;;;;;;8.63;4.47;;;7.20;99.90;;;;;;5033355;28;20198;-79
2023/11/13 10:37:10;;;;;;;7.23;4.00;;;7.20;99.90;;;;;;5033167;28;20624;-79
2023/11/13 10:39:37;;;;;;;8.70;3.97;;;7.30;99.90;;;;;;5031527;28;20186;-78
2023/11/13 10:42:27;;;;;;;7.87;3.93;;;7.30;99.90;;;;;;5027211;28;20185;-78
2023/11/13 10:44:58;;;;;;;6.07;4.63;;;7.40;99.90;;;;;;5033485;28;20206;-79
2023/11/13 10:47:30;;;;;;;8.60;4.30;;;7.40;99.90;;;;;;5033009;28;20551;-79
2023/11/13 10:49:58;;;;;;;8.40;4.70;;;7.40;99.90;;;;;;5034386;28;20516;-79
2023/11/13 10:52:27;;;;;;;7.23;4.50;;;7.50;99.90;;;;;;5034834;28;20182;-78
2023/11/13 10:54:55;;;;;;;8.83;4.97;;;7.50;99.90;;;;;;5028990;28;20676;-79
2023/11/13 10:57:22;;;;;;;12.10;4.93;;;7.40;99.90;;;;;;5031380;28;20226;-83
2023/11/13 10:59:52;;;;;;;6.47;4.60;;;7.40;99.90;;;;;;5034663;28;20178;-85
2023/11/13 11:02:35;;;;;;;7.70;4.57;;;7.40;99.90;;;;;;5034329;28;20269;-86
2023/11/13 11:05:10;;;;;;;11.33;4.50;;;7.40;99.90;;;;;;5027044;28;20305;-82
2023/11/13 11:07:38;;;;;;;7.73;4.87;;;7.30;99.90;;;;;;5047903;28;20216;-79
2023/11/13 11:10:07;;;;;;;12.67;5.27;;;7.30;99.90;;;;;;5032454;28;20524;-81
2023/11/13 11:12:50;;;;;;;9.87;5.87;;;7.30;99.90;;;;;;5034157;28;20171;-90
2023/11/13 11:15:34;;;;;;;7.13;4.83;;;7.30;99.90;;;;;;5029300;28;20654;-78
2023/11/13 11:18:27;;;;;;;9.07;5.13;;;7.30;99.90;;;;;;5034122;28;20210;-78
2023/11/13 11:21:07;;;;;;;8.57;5.07;;;7.30;99.90;;;;;;5032567;28;20179;-79
2023/11/13 11:23:44;;;;;;;8.77;5.03;;;7.30;99.90;;;;;;5024782;28;20274;-78
2023/11/13 11:26:10;;;;;;;8.27;5.40;;;7.30;99.90;;;;;;5032547;28;20209;-78
2023/11/13 11:28:48;;;;;;;12.30;5.53;;;7.30;99.90;;;;;;5032718;28;20776;-80
2023/11/13 11:31:33;;;;;;;8.40;5.47;;;7.30;99.90;;;;;;5024352;28;20240;-78
2023/11/13 11:34:00;;;;;;;8.00;5.47;;;7.30;99.90;;;;;;5032526;28;20309;-77
2023/11/13 11:36:33;;;;;;;7.20;5.23;;;7.20;99.90;;;;;;5033603;28;20175;-78
2023/11/13 11:39:28;;;;;;;9.37;5.30;;;7.30;99.90;;;;;;5026031;28;20310;-78
2023/11/13 11:41:55;;;;;;;10.23;5.70;;;7.20;99.90;;;;;;5012409;28;20198;-79
2023/11/13 11:44:26;;;;;;;11.93;5.57;;;7.20;99.90;;;;;;5027385;28;20683;-79
2023/11/13 11:46:53;;;;;;;9.63;5.53;;;7.20;99.90;;;;;;5033378;28;20181;-77
2023/11/13 11:49:28;;;;;;;9.83;6.03;;;7.20;99.90;;;;;;5032132;28;20244;-78
2023/11/13 11:51:55;;;;;;;7.73;5.13;;;7.20;99.90;;;;;;5032354;28;20193;-77
2023/11/13 11:54:22;;;;;;;7.80;5.70;;;7.20;99.90;;;;;;5031753;28;20629;-78
2023/11/13 11:57:21;;;;;;;8.33;5.90;;;7.10;99.90;;;;;;5032909;28;20226;-79
2023/11/13 11:59:46;;;;;;;9.10;6.03;;;7.10;99.90;;;;;;5024390;28;20210;-78
2023/11/13 12:02:12;;;;;;;9.98;5.95;;;7.10;99.90;;;;;;5032031;28;20194;-78
2023/11/13 12:04:38;;;;;;;8.00;5.77;;;7.10;99.90;;;;;;5033161;28;20213;-80
2023/11/13 12:07:09;;;;;;;8.37;6.07;;;7.10;99.90;;;;;;5032151;28;20277;-79
2023/11/13 12:09:43;;;;;;;7.90;5.63;;;7.10;99.90;;;;;;5033415;28;20182;-79
2023/11/13 12:12:12;;;;;;;10.70;6.20;;;7.10;99.90;;;;;;5032400;28;20592;-87
2023/11/13 12:14:37;;;;;;;12.47;6.33;;;7.10;99.90;;;;;;5028720;28;20186;-77
2023/11/13 12:17:07;;;;;;;8.33;6.20;;;7.10;99.90;;;;;;5031849;28;20719;-77
2023/11/13 12:19:33;;;;;;;10.83;6.70;;;7.20;99.90;;;;;;5033508;28;20588;-86
2023/11/13 12:21:58;;;;;;;9.07;6.93;;;7.20;99.90;;;;;;5036393;28;20282;-82
2023/11/13 12:24:25;;;;;;;9.73;6.87;;;7.20;99.90;;;;;;5036651;28;20584;-78
2023/11/13 12:26:56;;;;;;;10.43;7.47;;;7.20;99.90;;;;;;5036219;28;20213;-79
2023/11/13 12:29:22;;;;;;;15.10;7.07;;;7.20;99.90;;;;;;5037208;28;20224;-77
2023/11/13 12:31:53;;;;;;;11.43;6.87;;;7.20;99.90;;;;;;5037283;28;20179;-80
2023/11/13 12:34:19;;;;;;;11.97;7.10;;;7.20;99.90;;;;;;5037283;28;20265;-78
2023/11/13 12:36:49;;;;;;;9.30;7.27;;;7.10;99.90;;;;;;5033138;28;20187;-78
2023/11/13 12:39:22;;;;;;;11.60;7.67;;;7.10;99.90;;;;;;5030033;28;20192;-78
2023/11/13 12:41:53;;;;;;;11.60;7.07;;;7.10;99.90;;;;;;5022833;28;20185;-78
2023/11/13 12:44:25;;;;;;;9.67;6.63;;;7.10;99.90;;;;;;5036784;28;20968;-77
2023/11/13 12:46:54;;;;;;;11.10;6.93;;;7.10;99.90;;;;;;5035943;28;20611;-77
2023/11/13 12:49:21;;;;;;;9.73;7.50;;;7.10;99.90;;;;;;5035620;28;20221;-80
2023/11/13 12:51:47;;;;;;;11.70;7.50;;;7.10;99.90;;;;;;5035617;28;20198;-77
2023/11/13 12:54:14;;;;;;;11.90;7.57;;;7.10;99.90;;;;;;5028342;28;20299;-78
2023/11/13 12:56:42;;;;;;;10.20;7.77;;;7.10;99.90;;;;;;5034431;28;20234;-79
2023/11/13 12:59:09;;;;;;;10.07;7.40;;;7.10;99.90;;;;;;5036786;28;20524;-78